createdAt,value
2022-09-21T00:01:31.154Z,9.00
2022-09-21T00:04:04.155Z,9.00
2022-09-21T00:06:33.070Z,9.00
2022-09-21T00:09:00.235Z,9.10
2022-09-21T00:11:30.925Z,9.00
2022-09-21T00:14:04.351Z,9.00
2022-09-21T00:16:32.033Z,9.00
2022-09-21T00:18:58.860Z,8.90
2022-09-21T00:21:28.364Z,8.90
2022-09-21T00:23:55.899Z,8.90
2022-09-21T00:26:26.671Z,8.80
2022-09-21T00:28:55.307Z,8.70
2022-09-21T00:31:22.484Z,8.70
2022-09-21T00:33:51.019Z,8.60
2022-09-21T00:36:22.995Z,8.60
2022-09-21T00:39:01.524Z,8.60
2022-09-21T00:41:33.497Z,8.70
2022-09-21T00:44:18.858Z,8.70
2022-09-21T00:46:47.775Z,8.70
2022-09-21T00:49:15.495Z,8.70
2022-09-21T00:51:43.147Z,8.60
2022-09-21T00:54:12.873Z,8.60
2022-09-21T00:56:39.611Z,8.50
2022-09-21T00:59:07.011Z,8.50
2022-09-21T01:01:34.223Z,8.60
2022-09-21T01:04:03.105Z,8.50
2022-09-21T01:06:32.185Z,8.50
2022-09-21T01:08:59.598Z,8.50
2022-09-21T01:11:48.001Z,8.50
2022-09-21T01:14:30.902Z,8.40
2022-09-21T01:17:25.281Z,8.40
2022-09-21T01:20:14.970Z,8.40
2022-09-21T01:23:08.961Z,8.40
2022-09-21T01:26:01.274Z,8.30
2022-09-21T01:28:46.670Z,8.40
2022-09-21T01:31:19.895Z,8.30
2022-09-21T01:33:54.640Z,8.30
2022-09-21T01:36:27.707Z,8.30
2022-09-21T01:39:05.148Z,8.30
2022-09-21T01:41:32.319Z,8.30
2022-09-21T01:44:08.885Z,8.20
2022-09-21T01:46:37.067Z,8.20
2022-09-21T01:49:13.122Z,8.10
2022-09-21T01:51:50.597Z,8.10
2022-09-21T01:54:25.452Z,8.10
2022-09-21T01:57:07.240Z,8.10
2022-09-21T01:59:49.107Z,8.00
2022-09-21T02:02:33.811Z,8.00
2022-09-21T02:05:02.592Z,8.00
2022-09-21T02:07:34.007Z,8.00
2022-09-21T02:10:02.981Z,8.10
2022-09-21T02:12:33.090Z,8.00
2022-09-21T02:15:10.423Z,8.00
2022-09-21T02:17:55.647Z,8.00
2022-09-21T02:20:48.979Z,7.90
2022-09-21T02:23:30.987Z,7.90
2022-09-21T02:26:28.955Z,7.80
2022-09-21T02:29:19.945Z,7.80
2022-09-21T02:32:02.270Z,7.80
2022-09-21T02:34:47.939Z,7.80
2022-09-21T02:37:31.190Z,7.80
2022-09-21T02:40:24.023Z,7.80
2022-09-21T02:42:57.864Z,7.70
2022-09-21T02:45:36.857Z,7.70
2022-09-21T02:48:08.362Z,7.70
2022-09-21T02:50:59.089Z,7.70
2022-09-21T02:53:30.095Z,7.70
2022-09-21T02:56:02.829Z,7.70
2022-09-21T02:58:35.877Z,7.70
2022-09-21T03:01:08.708Z,7.70
2022-09-21T03:03:41.067Z,7.60
2022-09-21T03:06:12.345Z,7.60
2022-09-21T03:08:39.162Z,7.50
2022-09-21T03:11:06.022Z,7.50
2022-09-21T03:13:36.662Z,7.50
2022-09-21T03:16:06.967Z,7.50
2022-09-21T03:18:35.041Z,7.50
2022-09-21T03:21:03.898Z,7.40
2022-09-21T03:23:30.590Z,7.40
2022-09-21T03:25:57.396Z,7.30
2022-09-21T03:28:24.263Z,7.30
2022-09-21T03:30:52.445Z,7.20
2022-09-21T03:33:22.069Z,7.20
2022-09-21T03:35:51.753Z,7.20
2022-09-21T03:38:19.091Z,7.10
2022-09-21T03:40:48.982Z,7.10
2022-09-21T03:43:19.438Z,7.10
2022-09-21T03:45:50.006Z,7.10
2022-09-21T03:48:18.948Z,7.10
2022-09-21T03:50:48.102Z,7.00
2022-09-21T03:53:14.930Z,7.00
2022-09-21T03:55:42.015Z,7.00
2022-09-21T03:58:09.186Z,7.00
2022-09-21T04:00:36.384Z,7.00
2022-09-21T04:03:03.108Z,7.00
2022-09-21T04:05:32.579Z,7.00
2022-09-21T04:08:01.953Z,7.00
2022-09-21T04:10:33.414Z,7.00
2022-09-21T04:13:01.989Z,7.00
2022-09-21T04:15:31.542Z,7.00
2022-09-21T04:17:59.083Z,7.00
2022-09-21T04:20:28.115Z,7.00
2022-09-21T04:22:59.930Z,7.00
2022-09-21T04:25:28.994Z,7.00
2022-09-21T04:27:55.775Z,7.00
2022-09-21T04:30:22.482Z,6.90
2022-09-21T04:32:49.223Z,6.90
2022-09-21T04:35:15.992Z,6.90
2022-09-21T04:37:45.064Z,6.90
2022-09-21T04:40:12.164Z,6.90
2022-09-21T04:42:38.970Z,6.90
2022-09-21T04:45:11.127Z,7.00
2022-09-21T04:47:37.835Z,7.00
2022-09-21T04:50:07.529Z,7.00
2022-09-21T04:52:34.241Z,7.10
2022-09-21T04:55:03.091Z,7.00
2022-09-21T04:57:32.512Z,7.10
2022-09-21T04:59:59.867Z,7.00
2022-09-21T05:02:26.536Z,7.00
2022-09-21T05:04:58.039Z,7.00
2022-09-21T05:07:29.263Z,7.00
2022-09-21T05:10:04.741Z,7.00
2022-09-21T05:12:32.579Z,7.00
2022-09-21T05:15:01.747Z,7.00
2022-09-21T05:17:29.057Z,6.90
2022-09-21T05:19:55.810Z,6.90
2022-09-21T05:22:22.709Z,7.00
2022-09-21T05:24:49.386Z,7.00
2022-09-21T05:27:18.277Z,7.00
2022-09-21T05:29:50.034Z,7.00
2022-09-21T05:32:28.658Z,7.00
2022-09-21T05:35:24.802Z,7.20
2022-09-21T05:38:05.863Z,7.30
2022-09-21T05:40:33.397Z,7.40
2022-09-21T05:43:00.675Z,7.50
2022-09-21T05:45:28.899Z,7.50
2022-09-21T05:48:12.150Z,7.50
2022-09-21T05:50:41.786Z,7.40
2022-09-21T05:53:32.178Z,7.40
2022-09-21T05:56:03.117Z,7.30
2022-09-21T05:59:07.452Z,7.40
2022-09-21T06:01:58.923Z,7.40
2022-09-21T06:04:28.336Z,7.40
2022-09-21T06:06:57.821Z,7.50
2022-09-21T06:09:25.795Z,7.50
2022-09-21T06:11:52.494Z,7.50
2022-09-21T06:14:25.423Z,7.50
2022-09-21T06:16:52.867Z,7.50
2022-09-21T06:19:22.072Z,7.50
2022-09-21T06:21:51.021Z,7.60
2022-09-21T06:24:17.697Z,7.60
2022-09-21T06:26:46.587Z,7.60
2022-09-21T06:29:15.476Z,7.60
2022-09-21T06:31:44.289Z,7.60
2022-09-21T06:34:13.499Z,7.70
2022-09-21T06:36:40.997Z,7.70
2022-09-21T06:39:12.207Z,7.70
2022-09-21T06:41:43.626Z,7.70
2022-09-21T06:44:10.454Z,7.80
2022-09-21T06:46:39.808Z,7.80
2022-09-21T06:49:08.804Z,7.80
2022-09-21T06:51:36.316Z,7.90
2022-09-21T06:54:03.241Z,7.90
2022-09-21T06:56:30.369Z,8.00
2022-09-21T06:58:57.108Z,8.00
2022-09-21T07:01:24.741Z,8.10
2022-09-21T07:03:52.083Z,8.10
2022-09-21T07:06:18.990Z,8.10
2022-09-21T07:11:35.296Z,8.20
2022-09-21T07:14:05.351Z,8.20
2022-09-21T07:16:33.364Z,8.30
2022-09-21T07:19:10.277Z,8.40
2022-09-21T07:21:42.713Z,8.50
2022-09-21T07:24:12.456Z,8.60
2022-09-21T07:26:39.811Z,8.60
2022-09-21T07:29:11.181Z,8.70
2022-09-21T07:31:42.742Z,8.70
2022-09-21T07:34:09.451Z,8.80
2022-09-21T07:36:36.199Z,8.80
2022-09-21T07:39:05.874Z,8.90
2022-09-21T07:41:33.029Z,8.90
2022-09-21T07:43:59.901Z,8.90
2022-09-21T07:46:31.325Z,8.90
2022-09-21T07:48:58.032Z,8.90
2022-09-21T07:51:24.735Z,9.00
2022-09-21T07:53:57.386Z,9.00
2022-09-21T07:56:26.667Z,9.10
2022-09-21T07:59:07.511Z,9.20
2022-09-21T08:01:42.044Z,9.20
2022-09-21T08:04:10.853Z,9.20
2022-09-21T08:06:42.285Z,9.30
2022-09-21T08:09:11.183Z,9.30
2022-09-21T08:11:45.013Z,9.40
2022-09-21T08:14:22.442Z,9.40
2022-09-21T08:16:52.873Z,9.40
2022-09-21T08:19:25.860Z,9.50
2022-09-21T08:21:57.243Z,9.60
2022-09-21T08:24:26.559Z,9.70
2022-09-21T08:26:56.093Z,9.70
2022-09-21T08:29:25.766Z,9.70
2022-09-21T08:31:55.983Z,9.80
2022-09-21T08:34:24.034Z,9.90
2022-09-21T08:36:55.260Z,10.00
2022-09-21T08:39:22.653Z,10.20
2022-09-21T08:41:59.322Z,10.20
2022-09-21T08:44:32.348Z,10.20
2022-09-21T08:47:14.863Z,10.10
2022-09-21T08:49:48.786Z,10.10
2022-09-21T08:52:19.347Z,10.30
2022-09-21T08:54:58.360Z,10.40
2022-09-21T08:57:33.653Z,10.50
2022-09-21T09:00:15.207Z,10.50
2022-09-21T09:03:21.253Z,10.50
2022-09-21T09:06:06.237Z,10.60
2022-09-21T09:08:51.091Z,10.50
2022-09-21T09:11:17.729Z,10.60
2022-09-21T09:14:01.494Z,10.70
2022-09-21T09:17:01.462Z,10.80
2022-09-21T09:19:58.203Z,10.80
2022-09-21T09:22:39.022Z,10.80
2022-09-21T09:25:21.008Z,10.90
2022-09-21T09:27:53.737Z,11.00
2022-09-21T09:30:23.086Z,10.90
2022-09-21T09:33:21.754Z,10.90
2022-09-21T09:35:50.524Z,10.90
2022-09-21T09:38:33.622Z,10.80
2022-09-21T09:41:18.404Z,10.90
2022-09-21T09:44:09.111Z,10.90
2022-09-21T09:47:00.235Z,11.10
2022-09-21T09:49:50.598Z,11.30
2022-09-21T09:52:19.923Z,11.30
2022-09-21T09:54:47.168Z,11.60
2022-09-21T09:57:27.042Z,11.60
2022-09-21T10:00:01.250Z,11.70
2022-09-21T10:02:29.894Z,11.70
2022-09-21T10:05:07.305Z,11.70
2022-09-21T10:07:36.639Z,11.60
2022-09-21T10:10:21.954Z,11.50
2022-09-21T10:12:52.002Z,11.50
2022-09-21T10:15:21.721Z,11.60
2022-09-21T10:17:57.019Z,11.90
2022-09-21T10:20:25.218Z,12.30
2022-09-21T10:22:55.829Z,12.40
2022-09-21T10:25:26.967Z,12.40
2022-09-21T10:27:57.798Z,12.60
2022-09-21T10:30:32.981Z,12.60
2022-09-21T10:33:01.152Z,12.80
2022-09-21T10:35:28.112Z,12.90
2022-09-21T10:38:21.771Z,12.90
2022-09-21T10:40:50.036Z,13.10
2022-09-21T10:43:50.661Z,12.90
2022-09-21T10:46:20.314Z,12.80
2022-09-21T10:48:47.504Z,12.90
2022-09-21T10:51:29.536Z,13.00
2022-09-21T10:53:57.368Z,13.00
2022-09-21T10:56:26.597Z,12.90
2022-09-21T10:59:19.605Z,12.70
2022-09-21T11:01:49.161Z,12.70
2022-09-21T11:04:19.429Z,12.60
2022-09-21T11:06:54.985Z,12.60
2022-09-21T11:09:29.608Z,12.60
2022-09-21T11:12:04.361Z,12.80
2022-09-21T11:14:34.064Z,13.20
2022-09-21T11:17:06.171Z,13.40
2022-09-21T11:19:43.701Z,13.60
2022-09-21T11:22:34.572Z,13.60
2022-09-21T11:25:16.271Z,13.60
2022-09-21T11:27:49.257Z,13.50
2022-09-21T11:30:18.777Z,13.20
2022-09-21T11:33:02.997Z,13.00
2022-09-21T11:35:45.899Z,12.90
2022-09-21T11:38:34.608Z,12.80
2022-09-21T11:41:25.594Z,13.00
2022-09-21T11:44:17.509Z,13.20
2022-09-21T11:46:58.673Z,13.40
2022-09-21T11:49:46.409Z,13.70
2022-09-21T11:52:32.863Z,13.60
2022-09-21T11:55:39.082Z,13.40
2022-09-21T11:58:11.122Z,13.50
2022-09-21T12:00:59.245Z,13.50
2022-09-21T12:03:25.893Z,13.50
2022-09-21T12:06:13.830Z,13.40
2022-09-21T12:08:49.327Z,13.40
2022-09-21T12:11:30.562Z,13.60
2022-09-21T12:14:04.714Z,13.90
2022-09-21T12:17:06.331Z,13.80
2022-09-21T12:19:52.020Z,13.60
2022-09-21T12:22:30.896Z,13.40
2022-09-21T12:25:13.329Z,13.30
2022-09-21T12:28:20.855Z,13.50
2022-09-21T12:30:53.914Z,13.80
2022-09-21T12:33:33.363Z,13.60
2022-09-21T12:36:26.984Z,13.40
2022-09-21T12:39:07.733Z,13.30
2022-09-21T12:41:46.111Z,13.50
2022-09-21T12:44:29.037Z,13.70
2022-09-21T12:47:12.002Z,13.70
2022-09-21T12:49:50.439Z,13.80
2022-09-21T12:52:27.607Z,13.90
2022-09-21T12:55:30.919Z,13.70
2022-09-21T12:58:23.057Z,13.80
2022-09-21T13:01:00.387Z,13.90
2022-09-21T13:03:37.310Z,14.00
2022-09-21T13:06:37.156Z,14.10
2022-09-21T13:09:09.918Z,14.10
2022-09-21T13:11:51.416Z,14.00
2022-09-21T13:14:28.892Z,14.10
2022-09-21T13:17:00.826Z,14.00
2022-09-21T13:19:35.985Z,14.20
2022-09-21T13:22:25.424Z,14.30
2022-09-21T13:25:18.666Z,14.20
2022-09-21T13:28:09.945Z,14.40
2022-09-21T13:30:36.700Z,14.40
2022-09-21T13:33:25.209Z,14.40
2022-09-21T13:36:03.871Z,14.30
2022-09-21T13:38:42.719Z,14.20
2022-09-21T13:41:18.282Z,14.30
2022-09-21T13:43:58.672Z,14.40
2022-09-21T13:46:39.483Z,14.60
2022-09-21T13:49:15.432Z,14.70
2022-09-21T13:52:01.800Z,14.70
2022-09-21T13:54:56.638Z,14.60
2022-09-21T13:57:37.905Z,14.70
2022-09-21T14:00:13.868Z,15.00
2022-09-21T14:02:54.898Z,15.10
2022-09-21T14:05:39.706Z,15.30
2022-09-21T14:08:15.887Z,15.40
2022-09-21T14:10:52.137Z,15.50
2022-09-21T14:13:38.907Z,15.70
2022-09-21T14:16:27.998Z,16.10
2022-09-21T14:18:55.639Z,16.30
2022-09-21T14:21:25.586Z,16.40
2022-09-21T14:24:08.142Z,16.30
2022-09-21T14:26:46.280Z,16.20
2022-09-21T14:29:20.937Z,16.20
2022-09-21T14:31:52.273Z,16.20
2022-09-21T14:34:29.497Z,16.00
2022-09-21T14:36:59.914Z,15.80
2022-09-21T14:39:37.528Z,15.80
2022-09-21T14:42:17.513Z,15.50
2022-09-21T14:44:51.929Z,15.30
2022-09-21T14:47:39.311Z,15.20
2022-09-21T14:50:30.870Z,14.90
2022-09-21T14:53:55.834Z,14.60
2022-09-21T14:56:30.661Z,14.50
2022-09-21T14:59:03.028Z,14.30
2022-09-21T15:01:35.360Z,14.10
2022-09-21T15:04:46.106Z,14.00
2022-09-21T15:08:02.849Z,13.90
2022-09-21T15:11:07.009Z,13.70
2022-09-21T15:14:04.454Z,13.60
2022-09-21T15:16:47.068Z,13.60
2022-09-21T15:19:22.844Z,13.70
2022-09-21T15:22:15.468Z,13.70
2022-09-21T15:24:54.088Z,13.60
2022-09-21T15:27:27.581Z,13.50
2022-09-21T15:29:56.405Z,13.50
2022-09-21T15:32:46.430Z,13.50
2022-09-21T15:35:18.020Z,13.50
2022-09-21T15:37:45.741Z,13.40
2022-09-21T15:40:30.023Z,13.40
2022-09-21T15:43:18.815Z,13.30
2022-09-21T15:45:59.093Z,13.30
2022-09-21T15:48:36.407Z,13.40
2022-09-21T15:51:11.615Z,13.60
2022-09-21T15:53:46.776Z,13.60
2022-09-21T15:56:25.505Z,13.50
2022-09-21T15:59:03.450Z,13.50
2022-09-21T16:01:44.118Z,13.40
2022-09-21T16:04:19.465Z,13.50
2022-09-21T16:06:59.279Z,13.50
2022-09-21T16:09:26.011Z,13.60
2022-09-21T16:11:53.781Z,13.60
2022-09-21T16:14:39.953Z,13.60
2022-09-21T16:17:12.186Z,13.70
2022-09-21T16:19:50.851Z,13.70
2022-09-21T16:22:21.108Z,13.70
2022-09-21T16:24:54.562Z,13.80
2022-09-21T16:27:27.128Z,13.80
2022-09-21T16:29:58.484Z,13.80
2022-09-21T16:32:33.215Z,13.80
2022-09-21T16:35:25.138Z,13.90
2022-09-21T16:37:51.876Z,14.00
2022-09-21T16:40:21.025Z,14.10
2022-09-21T16:42:50.529Z,14.10
2022-09-21T16:45:25.102Z,14.10
2022-09-21T16:47:53.436Z,14.10
2022-09-21T16:50:24.566Z,14.00
2022-09-21T16:52:53.841Z,13.90
2022-09-21T16:55:24.438Z,13.90
2022-09-21T16:57:55.234Z,13.90
2022-09-21T17:00:24.489Z,13.80
2022-09-21T17:02:53.384Z,13.70
2022-09-21T17:05:22.324Z,13.70
2022-09-21T17:07:56.580Z,13.70
2022-09-21T17:10:39.500Z,13.70
2022-09-21T17:13:06.877Z,13.70
2022-09-21T17:15:35.864Z,13.70
2022-09-21T17:18:03.754Z,13.70
2022-09-21T17:20:35.954Z,13.70
2022-09-21T17:23:05.586Z,13.70
2022-09-21T17:25:33.450Z,13.80
2022-09-21T17:28:03.447Z,13.80
2022-09-21T17:30:30.351Z,13.80
2022-09-21T17:32:58.322Z,13.80
2022-09-21T17:35:38.842Z,13.80
2022-09-21T17:38:10.023Z,13.80
2022-09-21T17:40:39.831Z,13.80
2022-09-21T17:43:14.138Z,13.90
2022-09-21T17:45:53.086Z,13.90
2022-09-21T17:48:25.101Z,14.00
2022-09-21T17:50:52.313Z,14.00
2022-09-21T17:53:40.409Z,14.00
2022-09-21T17:56:25.899Z,14.00
2022-09-21T17:59:04.798Z,14.10
2022-09-21T18:01:41.472Z,14.10
2022-09-21T18:04:12.846Z,14.20
2022-09-21T18:06:41.904Z,14.10
2022-09-21T18:09:13.506Z,14.00
2022-09-21T18:12:08.539Z,14.00
2022-09-21T18:14:46.996Z,14.00
2022-09-21T18:17:46.261Z,14.00
2022-09-21T18:20:35.735Z,13.90
2022-09-21T18:23:31.829Z,13.80
2022-09-21T18:26:01.526Z,13.80
2022-09-21T18:29:12.592Z,13.80
2022-09-21T18:32:05.230Z,13.80
2022-09-21T18:35:13.874Z,13.90
2022-09-21T18:38:00.047Z,13.90
2022-09-21T18:40:53.526Z,13.80
2022-09-21T18:43:45.859Z,13.80
2022-09-21T18:46:18.572Z,13.80
2022-09-21T18:49:09.383Z,13.80
2022-09-21T18:52:18.341Z,13.80
2022-09-21T18:54:47.813Z,13.80
2022-09-21T18:57:17.542Z,13.90
2022-09-21T18:59:47.243Z,13.90
2022-09-21T19:02:17.557Z,13.80
2022-09-21T19:04:45.307Z,13.80
2022-09-21T19:07:42.111Z,13.70
2022-09-21T19:10:19.675Z,13.60
2022-09-21T19:12:59.052Z,13.50
2022-09-21T19:16:00.292Z,13.30
2022-09-21T19:18:45.064Z,13.20
2022-09-21T19:21:52.151Z,13.00
2022-09-21T19:24:27.110Z,13.00
2022-09-21T19:27:18.206Z,13.10
2022-09-21T19:29:50.772Z,13.00
2022-09-21T19:32:32.931Z,12.80
2022-09-21T19:35:12.185Z,12.70
2022-09-21T19:37:39.416Z,12.50
2022-09-21T19:40:07.179Z,12.40
2022-09-21T19:43:28.315Z,12.30
2022-09-21T19:46:23.306Z,12.30
2022-09-21T19:48:53.201Z,12.20
2022-09-21T19:51:37.400Z,12.10
2022-09-21T19:54:30.042Z,12.00
2022-09-21T19:57:15.613Z,12.00
2022-09-21T19:59:45.244Z,12.10
2022-09-21T20:02:15.443Z,12.00
2022-09-21T20:04:59.001Z,12.00
2022-09-21T20:07:32.076Z,12.00
2022-09-21T20:10:25.210Z,11.90
2022-09-21T20:13:08.606Z,11.70
2022-09-21T20:16:03.599Z,11.60
2022-09-21T20:18:54.063Z,11.50
2022-09-21T20:21:22.399Z,11.50
2022-09-21T20:23:58.274Z,11.40
2022-09-21T20:26:28.667Z,11.30
2022-09-21T20:28:55.669Z,11.30
2022-09-21T20:31:25.060Z,11.20
2022-09-21T20:33:56.289Z,11.20
2022-09-21T20:36:23.042Z,11.20
2022-09-21T20:38:49.954Z,11.10
2022-09-21T20:41:17.313Z,11.10
2022-09-21T20:43:46.573Z,11.00
2022-09-21T20:46:15.859Z,11.00
2022-09-21T20:48:43.474Z,10.90
2022-09-21T20:51:10.862Z,10.90
2022-09-21T20:53:40.278Z,10.90
2022-09-21T20:56:09.464Z,10.90
2022-09-21T20:58:38.732Z,10.90
2022-09-21T21:01:06.890Z,10.90
2022-09-21T21:03:34.239Z,10.80
2022-09-21T21:06:14.454Z,10.80
2022-09-21T21:08:41.516Z,10.70
2022-09-21T21:11:08.209Z,10.70
2022-09-21T21:13:35.167Z,10.70
2022-09-21T21:16:08.275Z,10.70
2022-09-21T21:18:40.802Z,10.60
2022-09-21T21:21:10.259Z,10.60
2022-09-21T21:23:56.102Z,10.60
2022-09-21T21:26:38.303Z,10.60
2022-09-21T21:29:09.755Z,10.60
2022-09-21T21:31:40.976Z,10.50
2022-09-21T21:34:07.791Z,10.50
2022-09-21T21:36:34.445Z,10.50
2022-09-21T21:39:01.141Z,10.40
2022-09-21T21:41:32.479Z,10.50
2022-09-21T21:43:59.557Z,10.40
2022-09-21T21:46:26.661Z,10.40
2022-09-21T21:48:53.397Z,10.30
2022-09-21T21:51:22.209Z,10.30
2022-09-21T21:53:48.891Z,10.20
2022-09-21T21:56:19.994Z,10.20
2022-09-21T21:58:52.220Z,10.20
2022-09-21T22:01:25.080Z,10.20
2022-09-21T22:03:54.235Z,10.10
2022-09-21T22:06:24.260Z,10.10
2022-09-21T22:08:51.880Z,10.10
2022-09-21T22:11:19.855Z,10.10
2022-09-21T22:13:46.511Z,10.10
2022-09-21T22:16:15.887Z,10.10
2022-09-21T22:18:46.151Z,10.10
2022-09-21T22:21:21.556Z,10.00
2022-09-21T22:24:00.378Z,10.00
2022-09-21T22:26:34.824Z,10.00
2022-09-21T22:29:05.845Z,10.00
2022-09-21T22:31:39.489Z,10.00
2022-09-21T22:34:09.455Z,10.00
2022-09-21T22:36:37.348Z,10.00
2022-09-21T22:39:06.820Z,10.00
2022-09-21T22:41:36.403Z,9.90
2022-09-21T22:44:03.201Z,9.90
2022-09-21T22:46:31.349Z,9.90
2022-09-21T22:49:00.253Z,9.90
2022-09-21T22:51:27.838Z,9.90
2022-09-21T22:53:57.723Z,9.80
2022-09-21T22:56:26.984Z,9.70
2022-09-21T22:58:57.167Z,9.70
2022-09-21T23:01:33.954Z,9.70
2022-09-21T23:04:08.300Z,9.80
2022-09-21T23:06:40.308Z,9.80
2022-09-21T23:09:12.117Z,9.70
2022-09-21T23:11:43.021Z,9.70
2022-09-21T23:14:14.557Z,9.60
2022-09-21T23:16:44.040Z,9.60
2022-09-21T23:19:15.271Z,9.70
2022-09-21T23:21:46.809Z,9.70
2022-09-21T23:24:13.706Z,9.60
2022-09-21T23:26:41.176Z,9.60
2022-09-21T23:29:12.554Z,9.60
2022-09-21T23:31:44.496Z,9.60
2022-09-21T23:34:15.091Z,9.60
2022-09-21T23:36:42.867Z,9.60
2022-09-21T23:39:16.340Z,9.50
2022-09-21T23:41:43.773Z,9.50
2022-09-21T23:44:10.524Z,9.40
2022-09-21T23:46:40.256Z,9.40
2022-09-21T23:49:09.810Z,9.40
2022-09-21T23:51:42.243Z,9.40
2022-09-21T23:54:11.106Z,9.30
2022-09-21T23:56:37.861Z,9.30
2022-09-21T23:59:05.394Z,9.30
